createdAt,value
2022-11-07T00:00:25.158Z,93.74
2022-11-07T00:04:35.347Z,93.87
2022-11-07T00:08:38.692Z,94.27
2022-11-07T00:12:41.983Z,94.33
2022-11-07T00:16:47.118Z,94.29
2022-11-07T00:20:50.431Z,93.92
2022-11-07T00:24:53.812Z,93.90
2022-11-07T00:28:57.169Z,93.98
2022-11-07T00:33:00.641Z,94.04
2022-11-07T00:37:03.998Z,94.40
2022-11-07T00:41:07.679Z,94.95
2022-11-07T00:45:12.022Z,95.22
2022-11-07T00:49:15.346Z,95.34
2022-11-07T00:53:18.649Z,95.39
2022-11-07T00:57:22.049Z,95.63
2022-11-07T01:01:28.456Z,95.86
2022-11-07T01:05:31.856Z,95.71
2022-11-07T01:09:35.287Z,95.67
2022-11-07T01:13:38.590Z,95.86
2022-11-07T01:17:41.851Z,95.65
2022-11-07T01:21:45.596Z,95.83
2022-11-07T01:25:49.466Z,95.97
2022-11-07T01:29:52.811Z,95.87
2022-11-07T01:33:56.085Z,95.83
2022-11-07T01:37:59.415Z,95.84
2022-11-07T01:42:03.039Z,95.91
2022-11-07T01:46:06.327Z,96.08
2022-11-07T01:50:10.387Z,96.22
2022-11-07T01:54:17.270Z,96.27
2022-11-07T01:58:20.640Z,96.25
2022-11-07T02:02:27.289Z,96.22
2022-11-07T02:06:42.685Z,96.23
2022-11-07T02:10:46.148Z,96.29
2022-11-07T02:14:49.888Z,96.28
2022-11-07T02:18:53.323Z,96.43
2022-11-07T02:23:04.505Z,96.60
2022-11-07T02:27:13.101Z,96.57
2022-11-07T02:31:16.422Z,96.63
2022-11-07T02:35:40.105Z,96.64
2022-11-07T02:39:43.366Z,96.68
2022-11-07T02:43:53.083Z,96.86
2022-11-07T02:47:57.000Z,96.90
2022-11-07T02:52:00.301Z,96.80
2022-11-07T02:56:04.508Z,96.74
2022-11-07T03:00:12.164Z,96.80
2022-11-07T03:04:15.811Z,96.81
2022-11-07T03:08:19.101Z,97.02
2022-11-07T03:12:22.363Z,96.98
2022-11-07T03:16:25.649Z,96.93
2022-11-07T03:20:29.008Z,96.98
2022-11-07T03:24:32.834Z,97.13
2022-11-07T03:28:36.144Z,97.02
2022-11-07T03:32:39.441Z,97.20
2022-11-07T03:36:42.735Z,97.21
2022-11-07T03:40:46.851Z,97.37
2022-11-07T03:44:50.138Z,97.45
2022-11-07T03:48:53.413Z,97.40
2022-11-07T03:52:56.699Z,97.37
2022-11-07T03:57:00.078Z,97.28
2022-11-07T04:01:04.134Z,97.42
2022-11-07T04:05:08.399Z,97.44
2022-11-07T04:09:11.698Z,97.42
2022-11-07T04:13:33.900Z,97.52
2022-11-07T04:17:37.248Z,97.63
2022-11-07T04:21:40.538Z,97.58
2022-11-07T04:26:02.691Z,97.75
2022-11-07T04:30:28.411Z,97.76
2022-11-07T04:34:31.786Z,97.76
2022-11-07T04:38:35.046Z,97.76
2022-11-07T04:42:39.180Z,97.82
2022-11-07T04:46:42.536Z,97.98
2022-11-07T04:50:46.784Z,98.05
2022-11-07T04:54:50.126Z,98.05
2022-11-07T04:58:53.392Z,98.25
2022-11-07T05:02:56.763Z,98.34
2022-11-07T05:07:00.139Z,98.47
2022-11-07T05:11:03.502Z,98.49
2022-11-07T05:15:07.690Z,98.40
2022-11-07T05:19:18.490Z,98.43
2022-11-07T05:23:22.389Z,98.26
2022-11-07T05:27:26.022Z,98.28
2022-11-07T05:31:29.444Z,98.21
2022-11-07T05:35:32.807Z,98.10
2022-11-07T05:39:36.497Z,98.16
2022-11-07T05:43:40.388Z,98.30
2022-11-07T05:47:43.750Z,98.25
2022-11-07T05:51:47.048Z,98.28
2022-11-07T05:55:50.422Z,98.21
2022-11-07T05:59:53.716Z,98.21
2022-11-07T06:03:56.967Z,98.17
2022-11-07T06:08:00.272Z,98.13
2022-11-07T06:12:04.220Z,98.16
2022-11-07T06:16:08.028Z,98.16
2022-11-07T06:20:11.666Z,98.21
2022-11-07T06:24:15.619Z,98.23
2022-11-07T06:28:19.059Z,98.33
2022-11-07T06:32:22.398Z,98.42
2022-11-07T06:36:25.933Z,98.44
2022-11-07T06:40:29.814Z,98.38
2022-11-07T06:44:33.492Z,98.38
2022-11-07T06:48:36.769Z,98.45
2022-11-07T06:52:40.136Z,98.48
2022-11-07T06:56:43.777Z,98.53
2022-11-07T07:00:47.178Z,98.46
2022-11-07T07:04:50.569Z,98.41
2022-11-07T07:08:54.742Z,98.42
2022-11-07T07:12:58.179Z,98.41
2022-11-07T07:17:01.624Z,98.55
2022-11-07T07:21:07.995Z,98.47
2022-11-07T07:25:11.899Z,98.53
2022-11-07T07:29:15.282Z,98.32
2022-11-07T07:33:18.995Z,98.38
2022-11-07T07:37:22.595Z,98.53
2022-11-07T07:41:25.863Z,98.56
2022-11-07T07:45:29.256Z,98.58
2022-11-07T07:49:32.539Z,98.48
2022-11-07T07:53:35.848Z,98.48
2022-11-07T07:57:43.336Z,98.47
2022-11-07T08:01:49.818Z,98.53
2022-11-07T08:05:58.154Z,98.56
2022-11-07T08:10:26.907Z,98.69
2022-11-07T08:14:24.853Z,98.59
2022-11-07T08:18:28.189Z,98.55
2022-11-07T08:22:31.560Z,98.47
2022-11-07T08:26:35.538Z,98.51
2022-11-07T08:30:38.893Z,98.59
2022-11-07T08:34:42.346Z,98.63
2022-11-07T08:38:45.780Z,98.95
2022-11-07T08:42:49.509Z,99.00
2022-11-07T08:46:53.113Z,98.61
2022-11-07T08:50:58.418Z,98.44
2022-11-07T08:55:02.465Z,98.39
2022-11-07T08:59:05.818Z,98.58
2022-11-07T09:07:39.896Z,98.47
2022-11-07T09:11:43.273Z,98.51
2022-11-07T09:15:50.902Z,98.43
2022-11-07T09:19:55.217Z,98.39
2022-11-07T09:23:58.711Z,98.50
2022-11-07T09:28:03.332Z,98.41
2022-11-07T09:32:30.492Z,98.36
2022-11-07T09:36:29.989Z,98.26
2022-11-07T09:40:40.877Z,98.16
2022-11-07T09:45:01.585Z,98.24
2022-11-07T09:49:19.930Z,98.52
2022-11-07T09:53:48.222Z,98.74
2022-11-07T09:57:59.147Z,99.04
2022-11-07T10:02:12.147Z,99.02
2022-11-07T10:06:29.058Z,98.78
2022-11-07T10:10:51.683Z,98.67
2022-11-07T10:15:43.300Z,98.43
2022-11-07T10:20:33.581Z,98.28
2022-11-07T10:24:58.650Z,98.49
2022-11-07T10:29:22.263Z,98.58
2022-11-07T10:33:46.751Z,98.69
2022-11-07T10:37:59.092Z,98.50
2022-11-07T10:42:16.997Z,98.43
2022-11-07T10:46:28.924Z,98.45
2022-11-07T10:50:32.751Z,98.41
2022-11-07T10:54:36.103Z,98.28
2022-11-07T10:58:46.721Z,98.19
2022-11-07T11:02:51.634Z,97.81
2022-11-07T11:07:06.935Z,97.81
2022-11-07T11:11:19.322Z,97.70
2022-11-07T11:15:25.396Z,97.51
2022-11-07T11:19:49.295Z,97.28
2022-11-07T11:23:54.536Z,97.26
2022-11-07T11:28:05.571Z,97.15
2022-11-07T11:32:21.489Z,97.22
2022-11-07T11:36:33.340Z,97.07
2022-11-07T11:40:40.608Z,96.99
2022-11-07T11:44:46.015Z,96.92
2022-11-07T11:48:58.248Z,96.79
2022-11-07T11:53:01.938Z,96.84
2022-11-07T11:57:11.718Z,96.65
2022-11-07T12:01:37.299Z,96.45
2022-11-07T12:06:11.917Z,96.40
2022-11-07T12:10:39.529Z,96.21
2022-11-07T12:15:03.530Z,95.94
2022-11-07T12:19:25.364Z,95.64
2022-11-07T12:23:47.169Z,95.40
2022-11-07T12:27:59.902Z,95.16
2022-11-07T12:32:30.256Z,94.88
2022-11-07T12:36:39.964Z,94.71
2022-11-07T12:41:09.105Z,94.41
2022-11-07T12:45:42.998Z,94.31
2022-11-07T12:50:08.266Z,94.13
2022-11-07T12:54:20.454Z,93.60
2022-11-07T12:58:35.312Z,93.26
2022-11-07T13:02:55.052Z,92.82
2022-11-07T13:07:21.352Z,92.65
2022-11-07T13:11:52.255Z,92.24
2022-11-07T13:16:14.973Z,91.81
2022-11-07T13:20:22.062Z,91.92
2022-11-07T13:24:25.477Z,91.57
2022-11-07T13:28:42.124Z,91.38
2022-11-07T13:32:48.437Z,91.03
2022-11-07T13:36:58.573Z,90.57
2022-11-07T13:41:04.942Z,90.12
2022-11-07T13:45:39.083Z,89.89
2022-11-07T13:49:48.463Z,89.50
2022-11-07T13:53:58.009Z,89.57
2022-11-07T13:58:07.147Z,89.17
2022-11-07T14:02:21.179Z,89.17
2022-11-07T14:06:24.692Z,89.38
2022-11-07T14:10:48.693Z,89.44
2022-11-07T14:14:55.738Z,89.50
2022-11-07T14:19:13.153Z,89.24
2022-11-07T14:23:21.641Z,89.24
2022-11-07T14:27:25.572Z,89.20
2022-11-07T14:31:35.180Z,89.27
2022-11-07T14:35:45.365Z,89.28
2022-11-07T14:39:49.864Z,89.17
2022-11-07T14:43:53.597Z,89.30
2022-11-07T14:47:57.730Z,89.12
2022-11-07T14:52:01.670Z,89.06
2022-11-07T14:56:11.215Z,88.93
2022-11-07T15:00:17.561Z,88.83
2022-11-07T15:04:29.042Z,88.70
2022-11-07T15:08:37.746Z,88.51
2022-11-07T15:12:52.059Z,88.48
2022-11-07T15:16:55.463Z,88.36
2022-11-07T15:21:01.345Z,88.45
2022-11-07T15:25:34.840Z,88.37
2022-11-07T15:29:38.172Z,88.20
2022-11-07T15:33:41.752Z,88.19
2022-11-07T15:37:57.534Z,88.11
2022-11-07T15:42:00.850Z,88.15
2022-11-07T15:46:12.993Z,88.20
2022-11-07T15:50:17.591Z,88.07
2022-11-07T15:54:21.157Z,88.04
2022-11-07T15:58:27.196Z,87.99
2022-11-07T16:02:30.905Z,88.01
2022-11-07T16:06:35.615Z,87.95
2022-11-07T16:10:44.041Z,87.94
2022-11-07T16:14:47.450Z,87.91
2022-11-07T16:18:53.476Z,87.80
2022-11-07T16:22:56.794Z,87.81
2022-11-07T16:27:00.253Z,87.71
2022-11-07T16:31:03.754Z,87.77
2022-11-07T16:35:07.343Z,87.63
2022-11-07T16:39:22.133Z,87.61
2022-11-07T16:43:25.446Z,87.51
2022-11-07T16:47:31.994Z,87.64
2022-11-07T16:51:35.337Z,87.66
2022-11-07T16:55:40.083Z,87.59
2022-11-07T16:59:44.884Z,87.52
2022-11-07T17:03:48.250Z,87.57
2022-11-07T17:07:51.753Z,87.62
2022-11-07T17:11:55.099Z,87.62
2022-11-07T17:15:59.019Z,87.63
2022-11-07T17:20:02.349Z,87.64
2022-11-07T17:24:06.099Z,87.68
2022-11-07T17:28:09.854Z,87.60
2022-11-07T17:32:13.144Z,87.50
2022-11-07T17:36:35.388Z,87.48
2022-11-07T17:40:40.805Z,87.46
2022-11-07T17:44:44.087Z,87.46
2022-11-07T17:48:48.797Z,87.52
2022-11-07T17:52:52.622Z,87.50
2022-11-07T17:56:55.966Z,87.49
2022-11-07T18:00:59.323Z,87.48
2022-11-07T18:05:02.703Z,87.45
2022-11-07T18:09:08.394Z,87.45
2022-11-07T18:13:11.760Z,87.35
2022-11-07T18:17:15.088Z,87.47
2022-11-07T18:21:18.576Z,87.49
2022-11-07T18:25:21.892Z,87.50
2022-11-07T18:29:25.300Z,87.55
2022-11-07T18:33:29.505Z,87.55
2022-11-07T18:37:32.837Z,87.54
2022-11-07T18:41:36.291Z,87.73
2022-11-07T18:45:41.930Z,87.66
2022-11-07T18:49:45.366Z,87.76
2022-11-07T18:53:50.502Z,87.65
2022-11-07T18:57:53.883Z,87.65
2022-11-07T19:01:57.303Z,87.68
2022-11-07T19:06:01.737Z,87.69
2022-11-07T19:10:05.600Z,87.74
2022-11-07T19:14:09.344Z,87.74
2022-11-07T19:18:12.726Z,87.70
2022-11-07T19:22:17.324Z,87.67
2022-11-07T19:26:20.853Z,87.76
2022-11-07T19:30:25.110Z,87.79
2022-11-07T19:34:28.507Z,87.94
2022-11-07T19:38:32.081Z,87.93
2022-11-07T19:42:35.349Z,87.76
2022-11-07T19:46:38.841Z,87.71
2022-11-07T19:50:42.306Z,87.70
2022-11-07T19:54:45.811Z,87.84
2022-11-07T19:58:49.169Z,88.04
2022-11-07T20:02:53.705Z,88.13
2022-11-07T20:06:57.237Z,88.15
2022-11-07T20:11:00.504Z,87.98
2022-11-07T20:15:04.072Z,87.79
2022-11-07T20:19:07.443Z,87.90
2022-11-07T20:23:10.830Z,88.03
2022-11-07T20:27:14.893Z,88.10
2022-11-07T20:31:21.578Z,88.12
2022-11-07T20:35:24.884Z,87.86
2022-11-07T20:39:28.280Z,87.54
2022-11-07T20:43:34.073Z,87.56
2022-11-07T20:47:37.439Z,87.82
2022-11-07T20:51:41.466Z,88.03
2022-11-07T20:55:45.385Z,87.95
2022-11-07T20:59:48.758Z,87.92
2022-11-07T21:03:52.236Z,88.05
2022-11-07T21:07:55.988Z,88.28
2022-11-07T21:11:59.431Z,88.31
2022-11-07T21:16:03.120Z,88.23
2022-11-07T21:20:07.517Z,88.13
2022-11-07T21:24:10.835Z,87.90
2022-11-07T21:28:20.094Z,88.03
2022-11-07T21:32:23.547Z,88.05
2022-11-07T21:36:32.750Z,87.82
2022-11-07T21:40:36.616Z,87.66
2022-11-07T21:44:40.078Z,87.52
2022-11-07T21:48:44.450Z,87.37
2022-11-07T21:52:49.279Z,86.82
2022-11-07T21:56:52.651Z,86.66
2022-11-07T22:00:56.058Z,87.18
2022-11-07T22:04:59.367Z,87.08
2022-11-07T22:09:04.134Z,87.33
2022-11-07T22:13:07.618Z,87.30
2022-11-07T22:17:11.149Z,87.37
2022-11-07T22:21:21.015Z,87.31
2022-11-07T22:25:24.331Z,87.25
2022-11-07T22:29:27.607Z,87.17
2022-11-07T22:33:30.992Z,87.11
2022-11-07T22:37:34.440Z,86.98
2022-11-07T22:41:37.965Z,87.22
2022-11-07T22:45:41.630Z,87.37
2022-11-07T22:49:44.925Z,87.59
2022-11-07T22:53:48.832Z,87.84
2022-11-07T22:57:53.558Z,88.03
2022-11-07T23:01:57.161Z,87.98
2022-11-07T23:06:04.891Z,88.14
2022-11-07T23:10:08.509Z,88.05
2022-11-07T23:14:13.900Z,88.34
2022-11-07T23:18:17.415Z,88.55
2022-11-07T23:22:21.932Z,88.63
2022-11-07T23:26:26.574Z,88.86
2022-11-07T23:30:30.573Z,88.91
2022-11-07T23:34:35.416Z,88.87
2022-11-07T23:38:38.663Z,89.04
2022-11-07T23:42:42.891Z,89.24
2022-11-07T23:47:05.153Z,89.33
2022-11-07T23:51:13.347Z,89.36
2022-11-07T23:55:35.564Z,89.39
2022-11-07T23:59:57.451Z,89.21
